Time;durP1;ratioP1;P1;durP2;ratioP2;P2;SDS_P1;SDS_P2;PMS_P1;PMS_P2;Temp;Humidity;BMP_temperature;BMP_pressure;BME280_temperature;BME280_humidity;BME280_pressure;Samples;Min_cycle;Max_cycle;Signal;HPM_P1;HPM_P2
2021/05/20 00:01:38;;;;;;;25.37;15.70;;;7.70;99.90;;;;;;3575983;39;20331;-79
2021/05/20 00:04:05;;;;;;;22.40;14.77;;;7.70;99.90;;;;;;3582337;39;20229;-79
2021/05/20 00:06:30;;;;;;;18.10;13.87;;;7.60;99.90;;;;;;3584669;39;20513;-79
2021/05/20 00:08:56;;;;;;;17.60;14.63;;;7.50;99.90;;;;;;3593990;39;20514;-79
2021/05/20 00:11:22;;;;;;;23.00;15.67;;;7.40;99.90;;;;;;3593780;39;20397;-80
2021/05/20 00:13:47;;;;;;;17.20;14.33;;;7.40;99.90;;;;;;3583326;39;20232;-79
2021/05/20 00:16:13;;;;;;;21.20;16.70;;;7.30;99.90;;;;;;3591979;39;20236;-79
2021/05/20 00:18:39;;;;;;;23.83;16.73;;;7.40;99.90;;;;;;3577812;39;20233;-79
2021/05/20 00:21:05;;;;;;;29.03;16.63;;;7.40;99.90;;;;;;3584062;39;20229;-79
2021/05/20 00:23:31;;;;;;;22.57;16.17;;;7.40;99.90;;;;;;3583060;39;20256;-79
2021/05/20 00:25:57;;;;;;;29.70;16.67;;;7.30;99.90;;;;;;3585533;39;20447;-79
2021/05/20 00:28:22;;;;;;;24.33;17.20;;;7.40;99.90;;;;;;3594528;39;20828;-79
2021/05/20 00:30:48;;;;;;;23.60;17.90;;;7.30;99.90;;;;;;3583878;39;21159;-79
2021/05/20 00:33:14;;;;;;;23.80;18.23;;;7.60;99.90;;;;;;3592090;39;20269;-80
2021/05/20 00:35:39;;;;;;;23.33;18.37;;;7.50;99.90;;;;;;3585218;39;20268;-79
2021/05/20 00:38:10;;;;;;;25.73;20.87;;;7.40;99.90;;;;;;3586915;39;20331;-80
2021/05/20 00:40:36;;;;;;;25.23;18.23;;;7.50;99.90;;;;;;3578530;39;20307;-79
2021/05/20 00:43:01;;;;;;;26.87;18.93;;;7.40;99.90;;;;;;3593788;39;20419;-79
2021/05/20 00:45:27;;;;;;;24.40;18.70;;;7.30;99.90;;;;;;3593248;39;20443;-79
2021/05/20 00:47:53;;;;;;;29.83;17.93;;;7.30;99.90;;;;;;3576879;39;20278;-79
2021/05/20 00:50:18;;;;;;;31.53;17.87;;;7.20;99.90;;;;;;3582150;39;20225;-79
2021/05/20 00:52:44;;;;;;;27.80;18.10;;;7.20;99.90;;;;;;3592413;39;20229;-79
2021/05/20 00:55:12;;;;;;;29.17;18.97;;;7.10;99.90;;;;;;3584368;39;20509;-79
2021/05/20 00:57:39;;;;;;;25.33;18.23;;;7.10;99.90;;;;;;3578885;39;20240;-80
2021/05/20 01:00:10;;;;;;;25.00;18.17;;;7.30;99.90;;;;;;3595527;39;20392;-80
2021/05/20 01:05:09;;;;;;;25.67;19.20;;;7.00;99.90;;;;;;3598701;39;20524;-74
2021/05/20 01:07:34;;;;;;;21.90;17.13;;;6.90;99.90;;;;;;3589628;39;20384;-74
2021/05/20 01:10:01;;;;;;;23.77;16.60;;;6.80;99.90;;;;;;3584958;39;20808;-74
2021/05/20 01:12:26;;;;;;;26.30;18.23;;;6.80;99.90;;;;;;3590046;39;20282;-75
2021/05/20 01:14:52;;;;;;;25.53;17.73;;;6.80;99.90;;;;;;3599150;39;20455;-74
2021/05/20 01:17:18;;;;;;;28.57;19.73;;;7.00;99.90;;;;;;3600379;39;20236;-74
2021/05/20 01:19:46;;;;;;;28.53;17.80;;;6.90;99.90;;;;;;3588573;39;20252;-75
2021/05/20 01:22:13;;;;;;;28.87;18.70;;;6.90;99.90;;;;;;3586918;39;20523;-74
2021/05/20 01:24:40;;;;;;;31.70;20.00;;;7.00;99.90;;;;;;3581413;39;20835;-74
2021/05/20 01:27:07;;;;;;;28.03;19.43;;;7.10;99.90;;;;;;3599281;39;20395;-74
2021/05/20 01:29:34;;;;;;;33.23;22.63;;;7.20;99.90;;;;;;3587823;39;20414;-75
2021/05/20 01:32:01;;;;;;;32.83;22.67;;;7.20;99.90;;;;;;3602024;39;20442;-74
2021/05/20 01:34:31;;;;;;;35.53;21.03;;;7.10;99.90;;;;;;3588258;39;20857;-74
2021/05/20 01:36:58;;;;;;;36.07;21.43;;;7.30;99.90;;;;;;3581476;39;20807;-75
2021/05/20 01:39:23;;;;;;;33.40;22.40;;;7.30;99.90;;;;;;3601550;39;20395;-74
2021/05/20 01:41:49;;;;;;;33.43;21.60;;;7.20;99.90;;;;;;3601460;39;20717;-74
2021/05/20 01:44:15;;;;;;;36.70;22.80;;;7.20;99.90;;;;;;3580738;39;21221;-74
2021/05/20 01:46:40;;;;;;;35.90;22.40;;;7.40;99.90;;;;;;3599641;39;20232;-74
2021/05/20 01:49:10;;;;;;;30.33;22.80;;;7.40;99.90;;;;;;3588505;39;20536;-74
2021/05/20 01:51:36;;;;;;;28.27;20.10;;;7.40;99.90;;;;;;3600653;39;20275;-75
2021/05/20 01:54:02;;;;;;;35.13;22.00;;;7.50;99.90;;;;;;3583409;39;20462;-74
2021/05/20 01:56:30;;;;;;;34.00;22.60;;;7.70;99.90;;;;;;3577998;39;21161;-74
2021/05/20 01:58:56;;;;;;;38.03;23.30;;;7.80;99.90;;;;;;3599265;39;20473;-74
2021/05/20 02:01:21;;;;;;;41.67;27.13;;;7.80;99.90;;;;;;3591140;39;20410;-74
2021/05/20 02:03:47;;;;;;;43.37;25.70;;;7.90;99.90;;;;;;3584379;39;20344;-74
2021/05/20 02:06:12;;;;;;;39.67;26.93;;;7.90;99.90;;;;;;3610357;39;20589;-74
2021/05/20 02:08:39;;;;;;;43.50;26.10;;;8.10;99.90;;;;;;3599727;39;20235;-75
2021/05/20 02:11:06;;;;;;;34.30;24.70;;;8.00;99.90;;;;;;3609937;39;20577;-74
2021/05/20 02:13:31;;;;;;;38.73;26.67;;;8.00;99.90;;;;;;3588779;39;20406;-75
2021/05/20 02:15:57;;;;;;;39.83;25.33;;;8.10;99.90;;;;;;3609723;39;20663;-75
2021/05/20 02:18:23;;;;;;;45.60;28.20;;;8.20;99.90;;;;;;3607731;39;20227;-74
2021/05/20 02:20:49;;;;;;;40.20;27.70;;;8.10;99.90;;;;;;3610972;39;20425;-74
2021/05/20 02:23:16;;;;;;;35.97;26.27;;;8.20;99.90;;;;;;3599827;39;20440;-74
2021/05/20 02:25:42;;;;;;;39.30;25.43;;;8.20;99.90;;;;;;3609021;39;20320;-74
2021/05/20 02:28:08;;;;;;;56.20;30.00;;;8.20;99.90;;;;;;3610173;39;20397;-74
2021/05/20 02:30:34;;;;;;;46.00;28.90;;;8.30;99.90;;;;;;3590099;39;20484;-74
2021/05/20 02:33:00;;;;;;;43.83;27.70;;;8.30;99.90;;;;;;3589164;39;20287;-74
2021/05/20 02:35:26;;;;;;;55.00;30.23;;;8.30;99.90;;;;;;3591924;39;20426;-74
2021/05/20 02:37:53;;;;;;;49.90;29.67;;;8.30;99.90;;;;;;3593329;39;20286;-74
2021/05/20 02:40:19;;;;;;;60.40;34.03;;;8.30;99.90;;;;;;3589449;39;20413;-74
2021/05/20 02:42:45;;;;;;;48.10;30.77;;;8.40;99.90;;;;;;3608012;39;20391;-74
2021/05/20 02:45:19;;;;;;;61.60;30.63;;;8.40;99.90;;;;;;3597245;39;21123;-74
2021/05/20 02:47:48;;;;;;;59.07;32.33;;;8.40;99.90;;;;;;3600469;39;20413;-74
2021/05/20 02:50:16;;;;;;;58.70;35.23;;;8.40;99.90;;;;;;3599010;39;20394;-74
2021/05/20 02:52:45;;;;;;;65.33;33.90;;;8.50;99.90;;;;;;3593400;39;20497;-75
2021/05/20 02:55:20;;;;;;;67.37;36.00;;;8.50;99.90;;;;;;3611108;39;20409;-74
2021/05/20 02:57:49;;;;;;;59.47;32.77;;;8.50;99.90;;;;;;3600134;39;20714;-74
2021/05/20 03:00:18;;;;;;;77.57;36.73;;;8.50;99.90;;;;;;3600459;39;20377;-74
2021/05/20 03:02:44;;;;;;;89.07;37.80;;;8.60;99.90;;;;;;3610587;39;20429;-73
2021/05/20 03:05:10;;;;;;;68.77;36.13;;;8.50;99.90;;;;;;3596828;39;20564;-74
2021/05/20 03:07:36;;;;;;;86.80;41.50;;;8.50;99.90;;;;;;3588817;39;20396;-72
2021/05/20 03:10:04;;;;;;;80.73;40.50;;;8.70;99.90;;;;;;3588033;39;20488;-74
2021/05/20 03:12:29;;;;;;;89.27;39.60;;;8.60;99.90;;;;;;3590574;39;20588;-74
2021/05/20 03:14:55;;;;;;;84.93;40.83;;;8.60;99.90;;;;;;3590719;39;20422;-74
2021/05/20 03:17:22;;;;;;;86.60;42.00;;;8.60;99.90;;;;;;3602062;39;20253;-75
2021/05/20 03:19:47;;;;;;;97.07;46.87;;;8.70;99.90;;;;;;3600832;39;20684;-74
2021/05/20 03:22:13;;;;;;;107.83;49.73;;;8.60;99.90;;;;;;3599649;39;20423;-74
2021/05/20 03:24:39;;;;;;;100.50;46.87;;;8.70;99.90;;;;;;3601536;39;20733;-74
2021/05/20 03:27:05;;;;;;;97.23;44.33;;;8.70;99.90;;;;;;3598303;39;20218;-73
2021/05/20 03:29:30;;;;;;;95.03;45.83;;;8.70;99.90;;;;;;3599030;39;20639;-74
2021/05/20 03:31:56;;;;;;;90.53;46.63;;;8.80;99.90;;;;;;3600731;39;20541;-74
2021/05/20 03:34:22;;;;;;;103.97;46.57;;;8.80;99.90;;;;;;3597585;39;20233;-74
2021/05/20 03:36:47;;;;;;;102.20;47.93;;;8.80;99.90;;;;;;3592295;39;20271;-74
2021/05/20 03:39:13;;;;;;;90.93;45.93;;;8.80;99.90;;;;;;3583313;39;20236;-74
2021/05/20 03:41:39;;;;;;;95.40;45.47;;;8.80;99.90;;;;;;3582733;39;20230;-74
2021/05/20 03:44:05;;;;;;;112.47;46.37;;;8.80;99.90;;;;;;3587165;39;20232;-75
2021/05/20 03:46:30;;;;;;;104.70;47.70;;;8.80;99.90;;;;;;3601719;39;20219;-74
2021/05/20 03:48:56;;;;;;;100.07;47.67;;;8.90;99.90;;;;;;3571872;39;20816;-74
2021/05/20 03:51:22;;;;;;;106.37;49.47;;;8.80;99.90;;;;;;3600781;39;20236;-74
2021/05/20 03:53:48;;;;;;;99.67;48.67;;;8.90;99.90;;;;;;3601553;39;20255;-74
2021/05/20 03:56:14;;;;;;;97.30;42.70;;;8.90;99.90;;;;;;3582686;39;20535;-74
2021/05/20 03:58:39;;;;;;;89.83;45.70;;;8.80;99.90;;;;;;3590567;39;20410;-75
2021/05/20 04:01:05;;;;;;;93.23;45.67;;;8.80;99.90;;;;;;3597601;39;20240;-75
2021/05/20 04:03:32;;;;;;;89.37;44.27;;;8.90;99.90;;;;;;3597945;39;20535;-75
2021/05/20 04:06:00;;;;;;;114.27;44.67;;;8.90;99.90;;;;;;3590781;39;20224;-75
2021/05/20 04:08:27;;;;;;;103.27;46.90;;;8.90;99.90;;;;;;3589368;39;20827;-75
2021/05/20 04:10:53;;;;;;;89.40;45.00;;;8.90;99.90;;;;;;3581951;39;20402;-75
2021/05/20 04:13:31;;;;;;;97.40;44.03;;;8.90;99.90;;;;;;3596388;39;20689;-74
2021/05/20 04:15:58;;;;;;;87.40;42.97;;;8.90;99.90;;;;;;3600644;39;20388;-75
2021/05/20 04:18:24;;;;;;;97.50;46.77;;;8.90;99.90;;;;;;3599117;39;20410;-73
2021/05/20 04:20:50;;;;;;;87.80;44.53;;;9.00;99.90;;;;;;3599008;39;20726;-72
2021/05/20 04:23:16;;;;;;;84.93;44.70;;;9.00;99.90;;;;;;3583468;39;20415;-75
2021/05/20 04:25:42;;;;;;;74.73;39.03;;;9.10;99.90;;;;;;3599052;39;20394;-75
2021/05/20 04:28:08;;;;;;;86.70;44.17;;;9.10;99.90;;;;;;3590664;39;20385;-74
2021/05/20 04:30:34;;;;;;;91.43;44.10;;;9.00;99.90;;;;;;3600739;39;20401;-74
2021/05/20 04:33:00;;;;;;;88.90;44.10;;;9.10;99.90;;;;;;3600016;39;20772;-74
2021/05/20 04:35:26;;;;;;;93.90;45.53;;;9.10;99.90;;;;;;3597872;39;20365;-74
2021/05/20 04:37:52;;;;;;;89.50;45.37;;;9.10;99.90;;;;;;3590351;39;20238;-74
2021/05/20 04:40:17;;;;;;;91.23;44.70;;;9.10;99.90;;;;;;3589098;39;20231;-73
2021/05/20 04:42:43;;;;;;;105.83;49.60;;;9.20;99.90;;;;;;3589958;39;20236;-74
2021/05/20 04:45:09;;;;;;;113.57;50.30;;;9.20;99.90;;;;;;3599109;39;20231;-76
2021/05/20 04:47:35;;;;;;;100.20;47.47;;;9.40;99.90;;;;;;3591012;39;20685;-74
2021/05/20 04:50:00;;;;;;;104.50;48.97;;;9.30;99.90;;;;;;3600076;39;20528;-74
2021/05/20 04:52:26;;;;;;;113.83;48.47;;;9.40;99.90;;;;;;3597748;39;20240;-74
2021/05/20 04:54:52;;;;;;;108.27;46.77;;;9.50;99.90;;;;;;3581052;39;20722;-74
2021/05/20 04:57:17;;;;;;;98.30;47.30;;;9.50;99.90;;;;;;3582417;39;20333;-74
2021/05/20 04:59:43;;;;;;;104.70;51.20;;;9.50;99.90;;;;;;3591810;39;20271;-74
2021/05/20 05:02:09;;;;;;;118.50;50.67;;;9.50;99.90;;;;;;3588420;39;20277;-74
2021/05/20 05:04:34;;;;;;;105.40;48.00;;;9.40;99.90;;;;;;3586930;39;20248;-76
2021/05/20 05:07:00;;;;;;;120.90;48.93;;;9.40;99.90;;;;;;3588742;39;20230;-74
2021/05/20 05:09:25;;;;;;;108.57;49.87;;;9.40;99.90;;;;;;3592194;39;20242;-75
2021/05/20 05:11:51;;;;;;;114.77;49.87;;;9.40;99.90;;;;;;3601098;39;20266;-73
2021/05/20 05:14:17;;;;;;;119.30;52.47;;;9.30;99.90;;;;;;3588705;39;20244;-74
2021/05/20 05:16:43;;;;;;;102.60;48.27;;;9.40;99.90;;;;;;3599476;39;20231;-73
2021/05/20 05:19:09;;;;;;;111.63;48.90;;;9.60;99.90;;;;;;3581733;39;20445;-74
2021/05/20 05:21:35;;;;;;;94.00;45.23;;;9.60;99.90;;;;;;3600444;39;20392;-74
2021/05/20 05:24:00;;;;;;;104.53;48.90;;;9.50;99.90;;;;;;3599139;39;20489;-74
2021/05/20 05:26:27;;;;;;;87.83;44.70;;;9.60;99.90;;;;;;3593836;39;20823;-74
2021/05/20 05:28:53;;;;;;;101.17;45.03;;;9.60;99.90;;;;;;3592443;39;20645;-74
2021/05/20 05:31:23;;;;;;;107.60;49.90;;;9.70;99.90;;;;;;3600671;39;20439;-74
2021/05/20 05:33:49;;;;;;;111.37;52.27;;;9.60;99.90;;;;;;3588303;39;20411;-74
2021/05/20 05:36:15;;;;;;;117.00;48.73;;;9.50;99.90;;;;;;3598625;39;20414;-74
2021/05/20 05:38:41;;;;;;;113.43;49.87;;;9.40;99.90;;;;;;3600825;39;20429;-75
2021/05/20 05:41:06;;;;;;;114.67;53.63;;;9.60;99.90;;;;;;3602644;39;20490;-74
2021/05/20 05:43:32;;;;;;;122.03;52.20;;;9.60;99.90;;;;;;3593274;39;20246;-74
2021/05/20 05:45:57;;;;;;;112.50;49.33;;;9.60;99.90;;;;;;3604261;39;20242;-73
2021/05/20 05:48:23;;;;;;;106.93;51.00;;;9.60;99.90;;;;;;3590784;39;20243;-73
2021/05/20 05:50:52;;;;;;;116.33;50.17;;;9.70;99.90;;;;;;3589915;39;20243;-74
2021/05/20 05:53:18;;;;;;;115.47;51.77;;;9.70;99.90;;;;;;3581553;39;20946;-74
2021/05/20 05:55:43;;;;;;;121.33;54.77;;;9.60;99.90;;;;;;3586665;39;20433;-74
2021/05/20 05:58:09;;;;;;;110.93;52.57;;;9.80;99.90;;;;;;3597830;39;20244;-74
2021/05/20 06:00:35;;;;;;;113.70;51.30;;;9.80;99.90;;;;;;3588056;39;20251;-74
2021/05/20 06:03:02;;;;;;;101.73;47.37;;;9.70;99.90;;;;;;3581249;39;652261;-74
2021/05/20 06:05:28;;;;;;;109.67;48.03;;;9.80;99.90;;;;;;3575227;39;20406;-74
2021/05/20 06:07:54;;;;;;;125.43;49.83;;;9.80;99.90;;;;;;3589862;39;20407;-74
2021/05/20 06:10:22;;;;;;;88.93;46.70;;;9.70;99.90;;;;;;3596782;39;20269;-74
2021/05/20 06:12:48;;;;;;;94.30;46.87;;;9.90;99.90;;;;;;3591232;39;20419;-74
2021/05/20 06:15:14;;;;;;;94.23;46.47;;;9.90;99.90;;;;;;3594340;39;20798;-74
2021/05/20 06:17:39;;;;;;;87.77;44.53;;;10.10;99.90;;;;;;3588246;39;20528;-74
2021/05/20 06:20:07;;;;;;;99.10;42.93;;;10.00;99.90;;;;;;3576391;39;20239;-74
2021/05/20 06:22:33;;;;;;;85.03;43.27;;;10.10;99.90;;;;;;3603216;39;20219;-74
2021/05/20 06:24:58;;;;;;;93.70;44.13;;;10.20;99.90;;;;;;3587735;39;20531;-74
2021/05/20 06:27:26;;;;;;;103.27;49.10;;;10.30;99.90;;;;;;3595196;39;20247;-74
2021/05/20 06:29:56;;;;;;;96.87;49.47;;;10.20;99.90;;;;;;3601377;39;20779;-73
2021/05/20 06:32:22;;;;;;;91.53;49.53;;;10.30;99.90;;;;;;3583580;39;20717;-74
2021/05/20 06:34:48;;;;;;;80.00;44.57;;;10.40;99.90;;;;;;3586854;39;20429;-74
2021/05/20 06:37:14;;;;;;;82.63;44.63;;;10.40;99.90;;;;;;3600627;39;20413;-73
2021/05/20 06:39:42;;;;;;;90.37;43.93;;;10.40;99.90;;;;;;3600424;39;20486;-73
2021/05/20 06:42:10;;;;;;;91.93;49.10;;;10.30;99.90;;;;;;3587095;39;20545;-74
2021/05/20 06:44:37;;;;;;;83.80;44.40;;;10.50;99.90;;;;;;3582232;39;20413;-73
2021/05/20 06:47:03;;;;;;;68.60;39.43;;;10.50;99.90;;;;;;3582540;39;20405;-74
2021/05/20 06:49:29;;;;;;;64.03;35.37;;;10.30;99.90;;;;;;3587128;39;20490;-74
2021/05/20 06:51:55;;;;;;;68.70;37.13;;;10.50;99.90;;;;;;3596458;39;21796;-74
2021/05/20 06:54:20;;;;;;;71.87;39.80;;;10.60;99.90;;;;;;3585778;39;20422;-74
2021/05/20 06:56:50;;;;;;;77.33;39.90;;;10.50;99.90;;;;;;3587454;39;20312;-74
2021/05/20 07:02:01;;;;;;;70.37;41.37;;;10.70;99.90;;;;;;3585032;39;21365;-75
2021/05/20 07:04:26;;;;;;;67.90;39.60;;;10.90;99.90;;;;;;3587767;39;20534;-74
2021/05/20 07:06:52;;;;;;;67.60;37.63;;;10.80;99.90;;;;;;3597286;39;20247;-73
2021/05/20 07:09:18;;;;;;;70.63;40.00;;;11.20;99.90;;;;;;3598168;39;20232;-73
2021/05/20 07:11:44;;;;;;;61.73;34.53;;;11.10;99.90;;;;;;3589897;39;20474;-74
2021/05/20 07:14:10;;;;;;;67.40;36.37;;;10.90;99.90;;;;;;3596346;39;20228;-73
2021/05/20 07:16:36;;;;;;;72.17;36.23;;;11.20;99.90;;;;;;3589136;39;20425;-73
2021/05/20 07:19:02;;;;;;;54.20;33.67;;;10.90;99.90;;;;;;3577829;39;20477;-73
2021/05/20 07:21:28;;;;;;;46.40;30.53;;;11.10;99.90;;;;;;3587356;39;20224;-73
2021/05/20 07:23:53;;;;;;;57.23;34.53;;;11.40;99.90;;;;;;3596627;39;20554;-73
2021/05/20 07:26:19;;;;;;;44.53;28.20;;;11.20;99.90;;;;;;3598018;39;20231;-74
2021/05/20 07:28:45;;;;;;;46.93;28.60;;;11.30;99.90;;;;;;3590347;39;20231;-73
2021/05/20 07:31:10;;;;;;;58.03;29.23;;;11.20;99.90;;;;;;3590647;39;20687;-73
2021/05/20 07:33:38;;;;;;;44.87;29.70;;;11.00;99.90;;;;;;3589559;39;20236;-74
2021/05/20 07:36:05;;;;;;;45.67;29.37;;;11.30;99.90;;;;;;3587357;39;20246;-73
2021/05/20 07:38:32;;;;;;;48.60;28.07;;;11.10;99.90;;;;;;3599173;39;20426;-73
2021/05/20 07:40:58;;;;;;;49.00;30.97;;;11.30;99.90;;;;;;3595986;39;21746;-73
2021/05/20 07:43:24;;;;;;;50.10;31.10;;;11.30;99.90;;;;;;3580987;39;20421;-74
2021/05/20 07:45:51;;;;;;;50.57;31.23;;;11.10;99.90;;;;;;3585344;39;20801;-74
2021/05/20 07:48:17;;;;;;;56.17;32.50;;;11.00;99.90;;;;;;3596164;39;20230;-74
2021/05/20 07:50:43;;;;;;;56.57;33.83;;;11.10;99.90;;;;;;3588541;39;21159;-74
2021/05/20 07:53:10;;;;;;;61.43;33.90;;;11.00;99.90;;;;;;3580946;39;20576;-74
2021/05/20 07:55:36;;;;;;;58.67;33.53;;;10.90;99.90;;;;;;3588856;39;22452;-74
2021/05/20 07:58:04;;;;;;;53.23;33.80;;;11.30;99.90;;;;;;3596763;39;20545;-74
2021/05/20 08:00:31;;;;;;;51.90;34.77;;;11.30;99.90;;;;;;3586971;39;20418;-74
2021/05/20 08:03:14;;;;;;;54.00;34.30;;;11.10;99.90;;;;;;3598958;39;20414;-74
2021/05/20 08:05:51;;;;;;;56.77;35.37;;;11.00;99.90;;;;;;3595368;39;20430;-74
2021/05/20 08:13:14;;;;;;;47.13;32.00;;;10.90;99.90;;;;;;3580506;39;20916;-74
2021/05/20 08:15:39;;;;;;;50.87;30.97;;;10.90;99.90;;;;;;3580217;39;20521;-74
2021/05/20 08:18:05;;;;;;;43.53;30.93;;;10.90;99.90;;;;;;3586386;39;20284;-74
2021/05/20 08:20:31;;;;;;;37.60;25.53;;;10.80;99.90;;;;;;3595165;39;20319;-75
2021/05/20 08:22:57;;;;;;;45.20;28.27;;;11.00;99.90;;;;;;3596339;39;20245;-75
2021/05/20 08:25:24;;;;;;;36.53;25.70;;;11.00;99.90;;;;;;3595434;39;20444;-75
2021/05/20 08:27:49;;;;;;;38.30;25.40;;;10.90;99.90;;;;;;3594952;39;20224;-74
2021/05/20 08:30:18;;;;;;;42.20;25.87;;;10.90;99.90;;;;;;3587329;39;20447;-74
2021/05/20 08:32:45;;;;;;;34.47;25.27;;;10.80;99.90;;;;;;3588748;39;20232;-74
2021/05/20 08:35:11;;;;;;;44.87;26.83;;;11.20;99.90;;;;;;3594979;39;20527;-74
2021/05/20 08:37:39;;;;;;;36.80;26.83;;;11.80;99.90;;;;;;3581737;39;20952;-74
2021/05/20 08:40:07;;;;;;;37.07;27.00;;;11.80;99.90;;;;;;3590776;39;20382;-74
2021/05/20 08:42:33;;;;;;;31.03;23.23;;;11.90;99.90;;;;;;3586194;39;20450;-74
2021/05/20 08:45:30;;;;;;;29.27;22.37;;;12.30;99.90;;;;;;3581678;39;20776;-74
2021/05/20 08:47:58;;;;;;;33.40;25.87;;;12.70;99.90;;;;;;3571148;39;20430;-73
2021/05/20 08:50:27;;;;;;;40.57;27.10;;;12.10;99.90;;;;;;3597421;39;20387;-74
2021/05/20 08:52:53;;;;;;;38.30;27.57;;;12.00;99.90;;;;;;3586717;39;20410;-75
2021/05/20 08:55:22;;;;;;;43.60;30.50;;;12.20;99.90;;;;;;3587715;39;20954;-75
2021/05/20 08:57:49;;;;;;;39.47;28.10;;;12.00;99.90;;;;;;3595062;39;20451;-74
2021/05/20 09:00:20;;;;;;;44.07;31.57;;;11.80;99.90;;;;;;3588969;39;20710;-74
2021/05/20 09:02:46;;;;;;;45.87;28.90;;;11.60;99.90;;;;;;3588796;39;20429;-74
2021/05/20 09:05:17;;;;;;;43.20;31.03;;;12.00;99.90;;;;;;3585409;39;20466;-74
2021/05/20 09:07:44;;;;;;;43.33;28.23;;;11.80;99.90;;;;;;3588473;39;21158;-74
2021/05/20 09:10:22;;;;;;;42.97;28.93;;;11.50;99.90;;;;;;3596917;39;21135;-74
2021/05/20 09:12:50;;;;;;;44.13;29.80;;;11.40;99.90;;;;;;3584899;39;20450;-74
2021/05/20 09:15:22;;;;;;;57.33;33.17;;;11.60;99.90;;;;;;3598925;39;20472;-74
2021/05/20 09:17:49;;;;;;;44.33;30.30;;;12.00;99.90;;;;;;3597739;39;20763;-74
2021/05/20 09:20:16;;;;;;;41.53;27.60;;;13.90;99.90;;;;;;3598032;39;21195;-74
2021/05/20 09:22:42;;;;;;;31.70;23.10;;;14.50;99.90;;;;;;3587860;39;20537;-75
2021/05/20 09:25:10;;;;;;;35.87;26.37;;;13.60;99.90;;;;;;3583131;39;20427;-75
2021/05/20 09:27:40;;;;;;;37.40;27.83;;;12.60;99.90;;;;;;3585551;39;21006;-75
2021/05/20 09:30:17;;;;;;;31.43;24.03;;;13.00;99.90;;;;;;3587785;39;21013;-74
2021/05/20 09:32:46;;;;;;;33.10;24.27;;;13.20;99.90;;;;;;3595521;39;20647;-75
2021/05/20 09:35:11;;;;;;;31.77;22.03;;;13.80;99.90;;;;;;3595735;39;20441;-75
2021/05/20 09:38:14;;;;;;;32.53;23.10;;;13.50;99.90;;;;;;3568655;39;20484;-75
2021/05/20 09:40:41;;;;;;;34.27;23.20;;;13.60;99.90;;;;;;3564009;39;20225;-75
2021/05/20 09:43:35;;;;;;;43.97;27.40;;;13.10;99.90;;;;;;3595181;39;21745;-75
2021/05/20 09:46:03;;;;;;;36.40;22.83;;;14.70;99.90;;;;;;3595555;39;20724;-75
2021/05/20 09:48:35;;;;;;;39.73;24.53;;;13.60;99.90;;;;;;3592635;39;20567;-74
2021/05/20 09:51:01;;;;;;;29.57;22.73;;;13.80;99.90;;;;;;3583768;39;20445;-75
2021/05/20 09:53:28;;;;;;;27.83;19.80;;;13.60;99.90;;;;;;3582113;39;21093;-74
2021/05/20 09:55:59;;;;;;;31.20;19.90;;;14.10;99.90;;;;;;3574684;39;21108;-75
2021/05/20 09:58:31;;;;;;;27.43;21.13;;;14.70;99.90;;;;;;3582023;39;20839;-75
2021/05/20 10:00:58;;;;;;;29.60;20.37;;;14.90;99.90;;;;;;3587394;39;20426;-73
2021/05/20 10:03:25;;;;;;;27.90;21.83;;;15.00;99.90;;;;;;3589189;39;20863;-75
2021/05/20 10:05:52;;;;;;;32.73;20.90;;;14.10;99.90;;;;;;3586995;39;20427;-74
2021/05/20 10:08:23;;;;;;;26.63;21.50;;;14.40;99.90;;;;;;3583441;39;20663;-74
2021/05/20 10:10:54;;;;;;;25.57;17.87;;;14.20;99.90;;;;;;3575828;39;21229;-74
2021/05/20 10:13:30;;;;;;;28.90;19.60;;;14.80;99.90;;;;;;3574346;39;20819;-74
2021/05/20 10:15:58;;;;;;;27.80;20.10;;;14.60;99.90;;;;;;3569509;39;20421;-73
2021/05/20 10:18:25;;;;;;;28.43;21.40;;;15.50;99.90;;;;;;3582727;39;20405;-75
2021/05/20 10:20:54;;;;;;;24.13;17.57;;;18.00;99.90;;;;;;3574056;39;21560;-74
2021/05/20 10:23:23;;;;;;;26.97;20.80;;;16.40;99.90;;;;;;3585291;39;20523;-74
2021/05/20 10:25:50;;;;;;;25.30;20.90;;;15.50;99.90;;;;;;3585096;39;20473;-74
2021/05/20 10:28:18;;;;;;;20.63;17.30;;;17.80;99.90;;;;;;3584806;39;20439;-74
2021/05/20 10:30:47;;;;;;;21.37;16.90;;;16.80;99.90;;;;;;3574799;39;20622;-74
2021/05/20 10:33:14;;;;;;;19.13;16.57;;;15.90;99.90;;;;;;3574457;39;21125;-74
2021/05/20 10:35:41;;;;;;;21.33;15.70;;;17.90;99.90;;;;;;3584782;39;20656;-75
2021/05/20 10:38:07;;;;;;;21.20;16.30;;;19.40;99.90;;;;;;3585385;39;20442;-74
2021/05/20 10:40:34;;;;;;;17.83;14.60;;;19.40;99.90;;;;;;3575494;39;20409;-74
2021/05/20 10:43:16;;;;;;;19.03;15.83;;;16.10;99.90;;;;;;3583752;39;20443;-74
2021/05/20 10:46:03;;;;;;;19.00;16.10;;;14.60;99.90;;;;;;3581870;39;20411;-74
2021/05/20 10:48:29;;;;;;;17.73;14.90;;;14.90;99.90;;;;;;3580362;39;20969;-74
2021/05/20 10:50:56;;;;;;;19.53;14.70;;;15.50;99.90;;;;;;3575351;39;21644;-74
2021/05/20 10:53:46;;;;;;;17.80;14.87;;;16.50;99.90;;;;;;3584541;39;20795;-75
2021/05/20 10:56:14;;;;;;;21.47;15.90;;;15.80;99.90;;;;;;3574008;39;20486;-74
2021/05/20 10:58:44;;;;;;;16.50;12.30;;;16.20;99.90;;;;;;3585208;39;21283;-74
2021/05/20 11:01:24;;;;;;;15.57;12.60;;;16.50;99.90;;;;;;3565387;39;20411;-74
2021/05/20 11:03:54;;;;;;;13.00;11.60;;;16.90;99.90;;;;;;3577452;39;20515;-74
2021/05/20 11:06:22;;;;;;;13.20;11.57;;;18.90;99.90;;;;;;3591249;39;20518;-74
2021/05/20 11:08:48;;;;;;;12.60;10.53;;;17.50;99.90;;;;;;3591991;39;20892;-74
2021/05/20 11:11:34;;;;;;;11.63;10.43;;;17.20;99.90;;;;;;3576239;39;20410;-74
2021/05/20 11:14:02;;;;;;;14.83;12.63;;;18.00;99.90;;;;;;3574640;39;21517;-74
2021/05/20 11:16:29;;;;;;;11.60;10.40;;;18.20;99.90;;;;;;3594570;39;20417;-74
2021/05/20 11:19:20;;;;;;;12.53;11.23;;;19.70;99.90;;;;;;3592315;39;21068;-74
2021/05/20 11:21:58;;;;;;;12.33;11.10;;;20.10;99.90;;;;;;3584662;39;21110;-74
2021/05/20 11:24:28;;;;;;;12.33;11.13;;;19.50;99.90;;;;;;3584838;39;20881;-74
2021/05/20 11:26:55;;;;;;;15.00;9.80;;;19.10;99.90;;;;;;3593034;39;20422;-74
2021/05/20 11:29:29;;;;;;;9.83;9.00;;;19.10;99.90;;;;;;3583958;39;20850;-74
2021/05/20 11:32:39;;;;;;;10.47;9.33;;;18.60;99.90;;;;;;3592004;39;20418;-75
2021/05/20 11:37:29;;;;;;;6.80;6.10;;;18.90;99.90;;;;;;3593591;39;20467;-74
2021/05/20 11:39:55;;;;;;;11.57;8.10;;;18.70;99.90;;;;;;3582128;39;20490;-75
2021/05/20 11:42:26;;;;;;;7.20;6.33;;;19.30;99.90;;;;;;3583374;39;20450;-74
2021/05/20 11:44:52;;;;;;;7.43;6.70;;;17.10;99.90;;;;;;3595290;39;20260;-74
2021/05/20 11:47:21;;;;;;;10.50;8.20;;;17.00;99.90;;;;;;3581672;39;20469;-74
2021/05/20 11:49:47;;;;;;;7.10;6.40;;;17.10;99.90;;;;;;3584416;39;20362;-74
2021/05/20 11:52:13;;;;;;;9.40;7.40;;;18.60;99.90;;;;;;3566874;39;20414;-74
2021/05/20 11:55:02;;;;;;;6.80;6.10;;;19.90;99.90;;;;;;3581686;39;20539;-74
2021/05/20 11:57:28;;;;;;;8.73;7.87;;;17.90;99.90;;;;;;3591004;39;20284;-74
2021/05/20 11:59:55;;;;;;;6.80;6.10;;;20.00;99.90;;;;;;3585033;39;20465;-74
2021/05/20 12:02:26;;;;;;;7.17;6.57;;;18.70;99.90;;;;;;3593948;39;20268;-74
2021/05/20 12:05:06;;;;;;;9.90;6.80;;;19.00;99.90;;;;;;3588698;39;21642;-75
2021/05/20 12:07:33;;;;;;;7.57;6.87;;;17.40;99.90;;;;;;3579274;39;20744;-74
2021/05/20 12:10:12;;;;;;;8.50;7.70;;;19.50;99.90;;;;;;3571415;39;21084;-75
2021/05/20 12:12:39;;;;;;;6.00;5.40;;;19.60;99.90;;;;;;3580892;39;20433;-75
2021/05/20 12:15:13;;;;;;;7.97;7.27;;;18.60;99.90;;;;;;3569436;39;20422;-75
2021/05/20 12:17:38;;;;;;;7.20;6.50;;;19.70;99.90;;;;;;3570174;39;20415;-73
2021/05/20 12:20:05;;;;;;;7.60;6.80;;;20.70;99.90;;;;;;3578176;39;21046;-74
2021/05/20 12:22:31;;;;;;;6.97;6.37;;;20.80;99.10;;;;;;3577889;39;20854;-74
2021/05/20 12:25:12;;;;;;;7.30;6.60;;;21.50;99.20;;;;;;3571222;39;20451;-74
2021/05/20 12:27:38;;;;;;;6.27;5.63;;;20.90;99.00;;;;;;3568592;39;20864;-74
2021/05/20 12:30:10;;;;;;;6.40;5.90;;;21.60;97.70;;;;;;3569136;39;20432;-74
2021/05/20 12:32:47;;;;;;;6.47;5.90;;;20.60;97.90;;;;;;3569238;39;20236;-74
2021/05/20 12:35:20;;;;;;;6.40;5.90;;;19.40;96.40;;;;;;3581438;39;20513;-74
2021/05/20 12:37:49;;;;;;;5.50;4.97;;;18.00;98.60;;;;;;3570749;39;20463;-74
2021/05/20 12:40:24;;;;;;;8.93;7.27;;;18.60;99.20;;;;;;3573227;39;20849;-74
2021/05/20 12:43:07;;;;;;;6.40;5.80;;;20.90;97.60;;;;;;3570073;39;20684;-74
2021/05/20 12:45:48;;;;;;;5.70;5.10;;;20.40;93.70;;;;;;3573257;39;20463;-74
2021/05/20 12:48:30;;;;;;;6.57;5.80;;;20.00;94.40;;;;;;3572015;39;20470;-74
2021/05/20 12:50:58;;;;;;;5.20;4.70;;;21.90;93.90;;;;;;3567221;39;20498;-74